Time;durP1;ratioP1;P1;durP2;ratioP2;P2;SDS_P1;SDS_P2;PMS_P1;PMS_P2;Temp;Humidity;BMP_temperature;BMP_pressure;BME280_temperature;BME280_humidity;BME280_pressure;Samples;Min_cycle;Max_cycle;Signal;HPM_P1;HPM_P2
2022/11/26 00:00:17;;;;;;;;;;;;;;;;;;4914972;29;19931;-89
2022/11/26 00:02:43;;;;;;;;;;;;;;;;;;4915135;29;20293;-89
2022/11/26 00:05:09;;;;;;;;;;;;;;;;;;4914991;29;20024;-89
2022/11/26 00:07:35;;;;;;;;;;;;;;;;;;4915459;29;20126;-89
2022/11/26 00:10:01;;;;;;;;;;;;;;;;;;4915163;29;19924;-89
2022/11/26 00:12:27;;;;;;;;;;;;;;;;;;4915121;29;19927;-89
2022/11/26 00:14:53;;;;;;;;;;;;;;;;;;4915038;29;19923;-89
2022/11/26 00:17:18;;;;;;;;;;;;;;;;;;4914967;29;20009;-89
2022/11/26 00:19:44;;;;;;;;;;;;;;;;;;4914839;29;20352;-89
2022/11/26 00:22:10;;;;;;;;;;;;;;;;;;4915275;29;20328;-89
2022/11/26 00:24:36;;;;;;;;;;;;;;;;;;4915104;29;19926;-90
2022/11/26 00:27:02;;;;;;;;;;;;;;;;;;4914964;29;19943;-89
2022/11/26 00:29:28;;;;;;;;;;;;;;;;;;4915308;29;20347;-89
2022/11/26 00:31:54;;;;;;;;;;;;;;;;;;4915130;29;20009;-89
2022/11/26 00:34:20;;;;;;;;;;;;;;;;;;4914853;29;19923;-89
2022/11/26 00:36:47;;;;;;;;;;;;;;;;;;4914756;29;19927;-89
2022/11/26 00:39:13;;;;;;;;;;;;;;;;;;4898965;29;19935;-88
2022/11/26 00:41:39;;;;;;;;;;;;;;;;;;4914667;29;19923;-89
2022/11/26 00:44:04;;;;;;;;;;;;;;;;;;4914656;29;19927;-90
2022/11/26 00:46:30;;;;;;;;;;;;;;;;;;4914984;29;19923;-89
2022/11/26 00:48:56;;;;;;;;;;;;;;;;;;4914956;29;19943;-89
2022/11/26 00:51:22;;;;;;;;;;;;;;;;;;4914591;29;19946;-89
2022/11/26 00:53:48;;;;;;;;;;;;;;;;;;4916858;29;19930;-89
2022/11/26 00:56:14;;;;;;;;;;;;;;;;;;4918498;29;19931;-89
2022/11/26 00:58:41;;;;;;;;;;;;;;;;;;4918332;29;19930;-89
2022/11/26 01:01:07;;;;;;;;;;;;;;;;;;4917926;29;19927;-89
2022/11/26 01:03:33;;;;;;;;;;;;;;;;;;4918379;29;19945;-89
2022/11/26 01:05:59;;;;;;;;;;;;;;;;;;4917975;29;20361;-89
2022/11/26 01:08:25;;;;;;;;;;;;;;;;;;4918150;29;20040;-89
2022/11/26 01:10:51;;;;;;;;;;;;;;;;;;4918149;29;19974;-89
2022/11/26 01:13:17;;;;;;;;;;;;;;;;;;4918497;29;20022;-90
2022/11/26 01:15:43;;;;;;;;;;;;;;;;;;4918129;29;20430;-89
2022/11/26 01:18:08;;;;;;;;;;;;;;;;;;4917644;29;19930;-89
2022/11/26 01:20:34;;;;;;;;;;;;;;;;;;4917732;29;19998;-89
2022/11/26 01:23:00;;;;;;;;;;;;;;;;;;4917585;29;19923;-89
2022/11/26 01:25:26;;;;;;;;;;;;;;;;;;4917668;29;19935;-89
2022/11/26 01:27:52;;;;;;;;;;;;;;;;;;4917728;29;19983;-89
2022/11/26 01:30:18;;;;;;;;;;;;;;;;;;4917474;29;19945;-90
2022/11/26 01:32:44;;;;;;;;;;;;;;;;;;4917417;29;20398;-89
2022/11/26 01:35:10;;;;;;;;;;;;;;;;;;4917720;29;19930;-89
2022/11/26 01:37:36;;;;;;;;;;;;;;;;;;4917749;29;20394;-89
2022/11/26 01:40:02;;;;;;;;;;;;;;;;;;4917311;29;19927;-89
2022/11/26 01:42:28;;;;;;;;;;;;;;;;;;4916913;29;19927;-88
2022/11/26 01:44:53;;;;;;;;;;;;;;;;;;4917376;29;20335;-88
2022/11/26 01:47:20;;;;;;;;;;;;;;;;;;4917020;29;19924;-89
2022/11/26 01:49:46;;;;;;;;;;;;;;;;;;4917559;29;19923;-90
2022/11/26 01:52:12;;;;;;;;;;;;;;;;;;4917237;29;20402;-89
2022/11/26 01:54:37;;;;;;;;;;;;;;;;;;4917468;29;19934;-89
2022/11/26 01:57:03;;;;;;;;;;;;;;;;;;4917185;29;19923;-89
2022/11/26 01:59:29;;;;;;;;;;;;;;;;;;4916852;29;19927;-89
2022/11/26 02:01:55;;;;;;;;;;;;;;;;;;4916943;29;20402;-89
2022/11/26 02:04:21;;;;;;;;;;;;;;;;;;4917146;29;19999;-89
2022/11/26 02:06:47;;;;;;;;;;;;;;;;;;4916784;29;19923;-89
2022/11/26 02:09:13;;;;;;;;;;;;;;;;;;4916847;29;19923;-89
2022/11/26 02:11:39;;;;;;;;;;;;;;;;;;4917394;29;20228;-89
2022/11/26 02:14:05;;;;;;;;;;;;;;;;;;4916790;29;19930;-89
2022/11/26 02:16:31;;;;;;;;;;;;;;;;;;4916908;29;19970;-89
2022/11/26 02:19:00;;;;;;;;;;;;;;;;;;4916817;29;19923;-90
2022/11/26 02:21:26;;;;;;;;;;;;;;;;;;4916417;29;20347;-90
2022/11/26 02:23:52;;;;;;;;;;;;;;;;;;4901125;29;19973;-90
2022/11/26 02:26:18;;;;;;;;;;;;;;;;;;4916765;29;20388;-89
2022/11/26 02:28:45;;;;;;;;;;;;;;;;;;4916458;29;19923;-90
2022/11/26 02:31:11;;;;;;;;;;;;;;;;;;4916204;29;19996;-89
2022/11/26 02:33:36;;;;;;;;;;;;;;;;;;4917012;29;20371;-90
2022/11/26 02:36:02;;;;;;;;;;;;;;;;;;4916339;29;20379;-90
2022/11/26 02:38:31;;;;;;;;;;;;;;;;;;4916386;29;19923;-89
2022/11/26 02:40:57;;;;;;;;;;;;;;;;;;4900716;29;19970;-90
2022/11/26 02:43:23;;;;;;;;;;;;;;;;;;4916421;29;20442;-89
2022/11/26 02:45:49;;;;;;;;;;;;;;;;;;4916160;29;19931;-90
2022/11/26 02:48:15;;;;;;;;;;;;;;;;;;4916099;29;19930;-90
2022/11/26 02:50:41;;;;;;;;;;;;;;;;;;4916212;29;20357;-89
2022/11/26 02:53:07;;;;;;;;;;;;;;;;;;4916447;29;19991;-89
2022/11/26 02:55:33;;;;;;;;;;;;;;;;;;4916112;29;20371;-89
2022/11/26 02:57:59;;;;;;;;;;;;;;;;;;4916178;29;19924;-89
2022/11/26 03:00:25;;;;;;;;;;;;;;;;;;4915808;29;20417;-89
2022/11/26 03:02:52;;;;;;;;;;;;;;;;;;4915617;29;21253;-89
2022/11/26 03:05:19;;;;;;;;;;;;;;;;;;4916151;29;20022;-89
2022/11/26 03:07:45;;;;;;;;;;;;;;;;;;4900191;29;19939;-89
2022/11/26 03:10:12;;;;;;;;;;;;;;;;;;4915933;29;19927;-89
2022/11/26 03:12:38;;;;;;;;;;;;;;;;;;4900146;29;19927;-89
2022/11/26 03:15:04;;;;;;;;;;;;;;;;;;4915960;29;19990;-89
2022/11/26 03:17:30;;;;;;;;;;;;;;;;;;4916046;29;19929;-89
2022/11/26 03:19:56;;;;;;;;;;;;;;;;;;4915727;29;20423;-89
2022/11/26 03:22:22;;;;;;;;;;;;;;;;;;4915620;29;19924;-89
2022/11/26 03:24:47;;;;;;;;;;;;;;;;;;4915354;29;19923;-89
2022/11/26 03:27:13;;;;;;;;;;;;;;;;;;4915346;29;19977;-89
2022/11/26 03:29:39;;;;;;;;;;;;;;;;;;4915493;29;19927;-89
2022/11/26 03:32:05;;;;;;;;;;;;;;;;;;4915054;29;19930;-89
2022/11/26 03:34:31;;;;;;;;;;;;;;;;;;4899571;29;19923;-89
2022/11/26 03:36:57;;;;;;;;;;;;;;;;;;4915175;29;20466;-89
2022/11/26 03:39:23;;;;;;;;;;;;;;;;;;4915496;29;20022;-89
2022/11/26 03:41:49;;;;;;;;;;;;;;;;;;4914968;29;20382;-89
2022/11/26 03:44:15;;;;;;;;;;;;;;;;;;4914907;29;19943;-89
2022/11/26 03:46:41;;;;;;;;;;;;;;;;;;4915268;29;19923;-89
2022/11/26 03:49:07;;;;;;;;;;;;;;;;;;4915356;29;19929;-89
2022/11/26 03:51:33;;;;;;;;;;;;;;;;;;4915088;29;20375;-89
2022/11/26 03:53:59;;;;;;;;;;;;;;;;;;4915383;29;19923;-89
2022/11/26 03:56:25;;;;;;;;;;;;;;;;;;4915388;29;19931;-89
2022/11/26 03:58:51;;;;;;;;;;;;;;;;;;4915362;29;19927;-89
2022/11/26 04:01:16;;;;;;;;;;;;;;;;;;4915020;29;19938;-89
2022/11/26 04:03:42;;;;;;;;;;;;;;;;;;4915005;29;19923;-89
2022/11/26 04:06:08;;;;;;;;;;;;;;;;;;4915021;29;19923;-89
2022/11/26 04:08:34;;;;;;;;;;;;;;;;;;4914904;29;20013;-89
2022/11/26 04:11:00;;;;;;;;;;;;;;;;;;4914663;29;19930;-89
2022/11/26 04:13:26;;;;;;;;;;;;;;;;;;4915168;29;19953;-89
2022/11/26 04:15:52;;;;;;;;;;;;;;;;;;4914755;29;20263;-90
2022/11/26 04:18:18;;;;;;;;;;;;;;;;;;4914953;29;19923;-89
2022/11/26 04:20:44;;;;;;;;;;;;;;;;;;4914710;29;19934;-90
2022/11/26 04:23:10;;;;;;;;;;;;;;;;;;4914687;29;19970;-89
2022/11/26 04:25:36;;;;;;;;;;;;;;;;;;4914854;29;19967;-89
2022/11/26 04:28:01;;;;;;;;;;;;;;;;;;4915980;29;19924;-89
2022/11/26 04:30:27;;;;;;;;;;;;;;;;;;4918441;29;20291;-90
2022/11/26 04:32:53;;;;;;;;;;;;;;;;;;4918398;29;19977;-91
2022/11/26 04:35:19;;;;;;;;;;;;;;;;;;4918583;29;20042;-89
2022/11/26 04:37:45;;;;;;;;;;;;;;;;;;4918534;29;20010;-90
2022/11/26 04:40:11;;;;;;;;;;;;;;;;;;4918062;29;20084;-90
2022/11/26 04:42:37;;;;;;;;;;;;;;;;;;4917944;29;19986;-89
2022/11/26 04:45:03;;;;;;;;;;;;;;;;;;4918134;29;19974;-90
2022/11/26 04:47:29;;;;;;;;;;;;;;;;;;4918159;29;20290;-89
2022/11/26 04:49:55;;;;;;;;;;;;;;;;;;4918087;29;19923;-89
2022/11/26 04:52:21;;;;;;;;;;;;;;;;;;4918229;29;19994;-90
2022/11/26 04:54:46;;;;;;;;;;;;;;;;;;4918447;29;20371;-89
2022/11/26 04:57:12;;;;;;;;;;;;;;;;;;4918151;29;19929;-90
2022/11/26 04:59:38;;;;;;;;;;;;;;;;;;4918040;29;19934;-90
2022/11/26 05:02:04;;;;;;;;;;;;;;;;;;4917802;29;20408;-89
2022/11/26 05:04:30;;;;;;;;;;;;;;;;;;4917645;29;19923;-89
2022/11/26 05:06:56;;;;;;;;;;;;;;;;;;4917694;29;19931;-90
2022/11/26 05:09:22;;;;;;;;;;;;;;;;;;4917658;29;20029;-89
2022/11/26 05:11:48;;;;;;;;;;;;;;;;;;4917850;29;19923;-90
2022/11/26 05:14:14;;;;;;;;;;;;;;;;;;4917754;29;19978;-90
2022/11/26 05:16:40;;;;;;;;;;;;;;;;;;4917619;29;20343;-89
2022/11/26 05:19:05;;;;;;;;;;;;;;;;;;4917477;29;19924;-89
2022/11/26 05:21:31;;;;;;;;;;;;;;;;;;4917700;29;19993;-89
2022/11/26 05:23:57;;;;;;;;;;;;;;;;;;4917450;29;20023;-89
2022/11/26 05:26:23;;;;;;;;;;;;;;;;;;4917686;29;19923;-89
2022/11/26 05:28:49;;;;;;;;;;;;;;;;;;4917836;29;20438;-90
2022/11/26 05:31:15;;;;;;;;;;;;;;;;;;4917564;29;19929;-90
2022/11/26 05:33:41;;;;;;;;;;;;;;;;;;4917637;29;20275;-89
2022/11/26 05:36:07;;;;;;;;;;;;;;;;;;4917772;29;19923;-89
2022/11/26 05:38:33;;;;;;;;;;;;;;;;;;4916876;29;20003;-89
2022/11/26 05:40:59;;;;;;;;;;;;;;;;;;4917078;29;19927;-89
2022/11/26 05:43:25;;;;;;;;;;;;;;;;;;4916994;29;20291;-90
2022/11/26 05:45:51;;;;;;;;;;;;;;;;;;4917351;29;19930;-90
2022/11/26 05:48:17;;;;;;;;;;;;;;;;;;4917115;29;19942;-90
2022/11/26 05:50:42;;;;;;;;;;;;;;;;;;4917257;29;19923;-90
2022/11/26 05:53:08;;;;;;;;;;;;;;;;;;4916904;29;19927;-90
2022/11/26 05:55:34;;;;;;;;;;;;;;;;;;4917236;29;19993;-89
2022/11/26 05:58:00;;;;;;;;;;;;;;;;;;4917103;29;20010;-90
2022/11/26 06:00:26;;;;;;;;;;;;;;;;;;4916933;29;19931;-89
2022/11/26 06:02:52;;;;;;;;;;;;;;;;;;4916933;29;19923;-90
2022/11/26 06:05:18;;;;;;;;;;;;;;;;;;4916787;29;20376;-89
2022/11/26 06:07:44;;;;;;;;;;;;;;;;;;4916607;29;19923;-89
2022/11/26 06:10:10;;;;;;;;;;;;;;;;;;4916654;29;20343;-89
2022/11/26 06:12:36;;;;;;;;;;;;;;;;;;4916555;29;19982;-89
2022/11/26 06:15:02;;;;;;;;;;;;;;;;;;4916524;29;19923;-89
2022/11/26 06:17:28;;;;;;;;;;;;;;;;;;4916618;29;20359;-89
2022/11/26 06:19:53;;;;;;;;;;;;;;;;;;4916558;29;20071;-89
2022/11/26 06:22:19;;;;;;;;;;;;;;;;;;4916465;29;20442;-89
2022/11/26 06:24:45;;;;;;;;;;;;;;;;;;4916438;29;19923;-89
2022/11/26 06:27:14;;;;;;;;;;;;;;;;;;4916189;29;20291;-89
2022/11/26 06:29:40;;;;;;;;;;;;;;;;;;4916257;29;20010;-89
2022/11/26 06:32:06;;;;;;;;;;;;;;;;;;4916342;29;20018;-89
2022/11/26 06:34:32;;;;;;;;;;;;;;;;;;4916089;29;20403;-89
2022/11/26 06:36:58;;;;;;;;;;;;;;;;;;4916259;29;19927;-89
2022/11/26 06:39:24;;;;;;;;;;;;;;;;;;4916425;29;19931;-89
2022/11/26 06:41:50;;;;;;;;;;;;;;;;;;4915987;29;19923;-89
2022/11/26 06:44:15;;;;;;;;;;;;;;;;;;4915946;29;19931;-90
2022/11/26 06:46:41;;;;;;;;;;;;;;;;;;4915966;29;19930;-89
2022/11/26 06:49:07;;;;;;;;;;;;;;;;;;4915896;29;19930;-89
2022/11/26 06:51:33;;;;;;;;;;;;;;;;;;4915111;29;19923;-89
2022/11/26 06:53:59;;;;;;;;;;;;;;;;;;4916008;29;19927;-89
2022/11/26 06:56:25;;;;;;;;;;;;;;;;;;4915941;29;19930;-89
2022/11/26 06:58:53;;;;;;;;;;;;;;;;;;4915933;29;19923;-89
2022/11/26 07:01:19;;;;;;;;;;;;;;;;;;4915658;29;19927;-89
2022/11/26 07:03:44;;;;;;;;;;;;;;;;;;4915564;29;19930;-88
2022/11/26 07:06:10;;;;;;;;;;;;;;;;;;4915599;29;19923;-88
2022/11/26 07:08:36;;;;;;;;;;;;;;;;;;4915656;29;19927;-90
2022/11/26 07:11:02;;;;;;;;;;;;;;;;;;4915616;29;19923;-89
2022/11/26 07:13:28;;;;;;;;;;;;;;;;;;4916606;29;19930;-90
2022/11/26 07:15:54;;;;;;;;;;;;;;;;;;4915865;29;19923;-90
2022/11/26 07:18:20;;;;;;;;;;;;;;;;;;4915990;29;19923;-90
2022/11/26 07:20:46;;;;;;;;;;;;;;;;;;4915308;29;19934;-90
2022/11/26 07:23:12;;;;;;;;;;;;;;;;;;4915383;29;19937;-89
2022/11/26 07:25:38;;;;;;;;;;;;;;;;;;4915516;29;19927;-90
2022/11/26 07:28:04;;;;;;;;;;;;;;;;;;4915334;29;19930;-90
2022/11/26 07:30:29;;;;;;;;;;;;;;;;;;4915614;29;20412;-91
2022/11/26 07:32:55;;;;;;;;;;;;;;;;;;4916669;29;20282;-90
2022/11/26 07:35:21;;;;;;;;;;;;;;;;;;4915529;29;19930;-91
2022/11/26 07:37:47;;;;;;;;;;;;;;;;;;4915619;29;19923;-90
2022/11/26 07:40:13;;;;;;;;;;;;;;;;;;4915142;29;20035;-91
2022/11/26 07:42:39;;;;;;;;;;;;;;;;;;4915024;29;19949;-90
2022/11/26 07:45:05;;;;;;;;;;;;;;;;;;4915090;29;19923;-90
2022/11/26 07:47:31;;;;;;;;;;;;;;;;;;4915157;29;20280;-91
2022/11/26 07:49:57;;;;;;;;;;;;;;;;;;4915277;29;19931;-89
2022/11/26 07:52:23;;;;;;;;;;;;;;;;;;4914919;29;20416;-89
2022/11/26 07:54:49;;;;;;;;;;;;;;;;;;4915005;29;20013;-90
2022/11/26 07:57:15;;;;;;;;;;;;;;;;;;4915072;29;19923;-90
2022/11/26 07:59:41;;;;;;;;;;;;;;;;;;4899412;29;19927;-89
2022/11/26 08:02:10;;;;;;;;;;;;;;;;;;4917664;29;19923;-89
2022/11/26 08:04:35;;;;;;;;;;;;;;;;;;4921519;29;20319;-91
2022/11/26 08:07:01;;;;;;;;;;;;;;;;;;4921235;29;19923;-91
2022/11/26 08:09:27;;;;;;;;;;;;;;;;;;4921351;29;20021;-91
2022/11/26 08:11:53;;;;;;;;;;;;;;;;;;4921107;29;19923;-89
2022/11/26 08:14:19;;;;;;;;;;;;;;;;;;4921393;29;20290;-88
2022/11/26 08:16:45;;;;;;;;;;;;;;;;;;4921033;29;19923;-88
2022/11/26 08:19:11;;;;;;;;;;;;;;;;;;4921238;29;19931;-92
2022/11/26 08:21:38;;;;;;;;;;;;;;;;;;4921521;29;20114;-89
2022/11/26 08:24:04;;;;;;;;;;;;;;;;;;4922346;29;19923;-90
2022/11/26 08:26:30;;;;;;;;;;;;;;;;;;4921934;29;20037;-89
2022/11/26 08:28:56;;;;;;;;;;;;;;;;;;4921091;29;20031;-89
2022/11/26 08:31:23;;;;;;;;;;;;;;;;;;4920950;29;20383;-90
2022/11/26 08:33:49;;;;;;;;;;;;;;;;;;4906052;29;20306;-90
2022/11/26 08:36:15;;;;;;;;;;;;;;;;;;4921315;29;19930;-90
2022/11/26 08:38:41;;;;;;;;;;;;;;;;;;4921444;29;19923;-90
2022/11/26 08:41:07;;;;;;;;;;;;;;;;;;4921807;29;19938;-91
2022/11/26 08:43:33;;;;;;;;;;;;;;;;;;4921119;29;19934;-90
2022/11/26 08:45:58;;;;;;;;;;;;;;;;;;4921077;29;20382;-91
2022/11/26 08:48:24;;;;;;;;;;;;;;;;;;4920664;29;19930;-90
2022/11/26 08:50:50;;;;;;;;;;;;;;;;;;4920911;29;19930;-91
2022/11/26 08:53:16;;;;;;;;;;;;;;;;;;4921086;29;19934;-90
2022/11/26 08:55:42;;;;;;;;;;;;;;;;;;4921214;29;19930;-90
2022/11/26 08:58:08;;;;;;;;;;;;;;;;;;4920983;29;19923;-91
2022/11/26 09:00:35;;;;;;;;;;;;;;;;;;4920718;29;19931;-91
2022/11/26 09:03:01;;;;;;;;;;;;;;;;;;4921013;29;19923;-91
2022/11/26 09:05:27;;;;;;;;;;;;;;;;;;4920879;29;20395;-89
2022/11/26 09:07:53;;;;;;;;;;;;;;;;;;4920967;29;20452;-89
2022/11/26 09:10:19;;;;;;;;;;;;;;;;;;4920601;29;20387;-89
2022/11/26 09:12:45;;;;;;;;;;;;;;;;;;4920651;29;19930;-89
2022/11/26 09:15:11;;;;;;;;;;;;;;;;;;4916783;29;19923;-89
2022/11/26 09:17:37;;;;;;;;;;;;;;;;;;4917808;29;20291;-89
2022/11/26 09:20:03;;;;;;;;;;;;;;;;;;4917614;29;19927;-89
2022/11/26 09:22:29;;;;;;;;;;;;;;;;;;4917379;29;19923;-90
2022/11/26 09:24:55;;;;;;;;;;;;;;;;;;4911389;29;19923;-90
2022/11/26 09:27:21;;;;;;;;;;;;;;;;;;4883044;29;19924;-90
2022/11/26 09:29:46;;;;;;;;;;;;;;;;;;4898296;29;19934;-90
2022/11/26 09:32:12;;;;;;;;;;;;;;;;;;4898342;29;19924;-90
2022/11/26 09:34:38;;;;;;;;;;;;;;;;;;4882663;29;20295;-90
2022/11/26 09:37:04;;;;;;;;;;;;;;;;;;4882863;29;20383;-89
2022/11/26 09:39:31;;;;;;;;;;;;;;;;;;4881087;29;19976;-89
2022/11/26 09:41:57;;;;;;;;;;;;;;;;;;4882523;29;20394;-89
2022/11/26 09:44:24;;;;;;;;;;;;;;;;;;4910742;29;19927;-91
2022/11/26 09:46:50;;;;;;;;;;;;;;;;;;4917085;29;19923;-89
2022/11/26 09:49:16;;;;;;;;;;;;;;;;;;4901197;29;20012;-89
2022/11/26 09:51:42;;;;;;;;;;;;;;;;;;4901122;29;19923;-90
2022/11/26 09:54:07;;;;;;;;;;;;;;;;;;4916998;29;19923;-88
2022/11/26 09:56:33;;;;;;;;;;;;;;;;;;4901373;29;19923;-89
2022/11/26 09:59:03;;;;;;;;;;;;;;;;;;4900902;29;20382;-89
2022/11/26 10:01:29;;;;;;;;;;;;;;;;;;4882313;29;19989;-89
2022/11/26 10:03:55;;;;;;;;;;;;;;;;;;4897666;29;19971;-89
2022/11/26 10:06:21;;;;;;;;;;;;;;;;;;4897962;29;20134;-90
2022/11/26 10:08:47;;;;;;;;;;;;;;;;;;4898240;29;20018;-90
2022/11/26 10:11:13;;;;;;;;;;;;;;;;;;4897689;29;20418;-89
2022/11/26 10:13:40;;;;;;;;;;;;;;;;;;4882038;29;20022;-89
2022/11/26 10:16:06;;;;;;;;;;;;;;;;;;4898293;29;19923;-88
2022/11/26 10:18:32;;;;;;;;;;;;;;;;;;4897670;29;19930;-88
2022/11/26 10:20:58;;;;;;;;;;;;;;;;;;4897547;29;20108;-88
2022/11/26 10:23:24;;;;;;;;;;;;;;;;;;4897570;29;19923;-88
2022/11/26 10:25:49;;;;;;;;;;;;;;;;;;4896232;29;19940;-88
2022/11/26 10:28:15;;;;;;;;;;;;;;;;;;4881772;29;20331;-92
2022/11/26 10:30:41;;;;;;;;;;;;;;;;;;4897286;29;20009;-89
2022/11/26 10:33:07;;;;;;;;;;;;;;;;;;4897149;29;20026;-90
2022/11/26 10:35:33;;;;;;;;;;;;;;;;;;4881803;29;20392;-92
2022/11/26 10:37:59;;;;;;;;;;;;;;;;;;4897087;29;19923;-89
2022/11/26 10:40:25;;;;;;;;;;;;;;;;;;4881502;29;20018;-88
2022/11/26 10:42:51;;;;;;;;;;;;;;;;;;4896860;29;19935;-88
2022/11/26 10:45:17;;;;;;;;;;;;;;;;;;4896845;29;20295;-87
2022/11/26 10:47:43;;;;;;;;;;;;;;;;;;4896888;29;19924;-88
2022/11/26 10:50:09;;;;;;;;;;;;;;;;;;4881332;29;19923;-88
2022/11/26 10:52:35;;;;;;;;;;;;;;;;;;4897064;29;19923;-90
2022/11/26 10:55:01;;;;;;;;;;;;;;;;;;4896975;29;20007;-91
2022/11/26 10:57:27;;;;;;;;;;;;;;;;;;4881432;29;20026;-90
2022/11/26 10:59:52;;;;;;;;;;;;;;;;;;4898979;29;20323;-89
2022/11/26 11:02:18;;;;;;;;;;;;;;;;;;4919175;29;20013;-90
2022/11/26 11:04:44;;;;;;;;;;;;;;;;;;4902853;29;19929;-90
2022/11/26 11:07:10;;;;;;;;;;;;;;;;;;4915050;29;19915;-91
2022/11/26 11:09:36;;;;;;;;;;;;;;;;;;4940088;29;19923;-91
2022/11/26 11:12:02;;;;;;;;;;;;;;;;;;4923096;29;20034;-92
2022/11/26 11:14:28;;;;;;;;;;;;;;;;;;4900066;29;19922;-91
2022/11/26 11:16:54;;;;;;;;;;;;;;;;;;4900092;29;19938;-91
2022/11/26 11:19:23;;;;;;;;;;;;;;;;;;4900148;29;19927;-89
2022/11/26 11:21:50;;;;;;;;;;;;;;;;;;4915227;29;20308;-91
2022/11/26 11:24:16;;;;;;;;;;;;;;;;;;4915094;29;19927;-89
2022/11/26 11:26:42;;;;;;;;;;;;;;;;;;4899326;29;19982;-89
2022/11/26 11:29:08;;;;;;;;;;;;;;;;;;4915539;29;19923;-90
2022/11/26 11:31:34;;;;;;;;;;;;;;;;;;4899619;29;19924;-88
2022/11/26 11:34:00;;;;;;;;;;;;;;;;;;4915157;29;19923;-89
2022/11/26 11:36:26;;;;;;;;;;;;;;;;;;4899017;29;19954;-88
2022/11/26 11:38:52;;;;;;;;;;;;;;;;;;4899002;29;19923;-88
2022/11/26 11:41:18;;;;;;;;;;;;;;;;;;4914785;29;19927;-88
2022/11/26 11:43:44;;;;;;;;;;;;;;;;;;4914729;29;19927;-88
2022/11/26 11:46:10;;;;;;;;;;;;;;;;;;4914994;29;19923;-87
2022/11/26 11:48:36;;;;;;;;;;;;;;;;;;4915145;29;19930;-89
2022/11/26 11:51:01;;;;;;;;;;;;;;;;;;4898963;29;19923;-88
2022/11/26 11:53:27;;;;;;;;;;;;;;;;;;4914512;29;19994;-89
2022/11/26 11:55:53;;;;;;;;;;;;;;;;;;4899220;29;20010;-89
2022/11/26 11:58:19;;;;;;;;;;;;;;;;;;4899132;29;20006;-89
2022/11/26 12:00:45;;;;;;;;;;;;;;;;;;4914638;29;20294;-88
2022/11/26 12:03:11;;;;;;;;;;;;;;;;;;4914792;29;19939;-89
2022/11/26 12:05:37;;;;;;;;;;;;;;;;;;4914840;29;19934;-91
2022/11/26 12:08:03;;;;;;;;;;;;;;;;;;4914849;29;20405;-91
2022/11/26 12:10:29;;;;;;;;;;;;;;;;;;4898801;29;20012;-90
2022/11/26 12:12:55;;;;;;;;;;;;;;;;;;4914732;29;19923;-89
2022/11/26 12:15:22;;;;;;;;;;;;;;;;;;4898886;29;19927;-91
2022/11/26 12:17:48;;;;;;;;;;;;;;;;;;4899213;29;19923;-90
2022/11/26 12:20:14;;;;;;;;;;;;;;;;;;4898943;29;20036;-91
2022/11/26 12:22:40;;;;;;;;;;;;;;;;;;4898883;29;19926;-91
2022/11/26 12:25:09;;;;;;;;;;;;;;;;;;4899332;29;19923;-91
2022/11/26 12:27:35;;;;;;;;;;;;;;;;;;4898628;29;19923;-91
2022/11/26 12:30:01;;;;;;;;;;;;;;;;;;4898797;29;20302;-90
2022/11/26 12:32:27;;;;;;;;;;;;;;;;;;4898869;29;19934;-90
2022/11/26 12:34:53;;;;;;;;;;;;;;;;;;4890120;29;19923;-88
2022/11/26 12:37:18;;;;;;;;;;;;;;;;;;4895617;29;20315;-89
2022/11/26 12:39:44;;;;;;;;;;;;;;;;;;4895673;29;19959;-89
2022/11/26 12:42:10;;;;;;;;;;;;;;;;;;4895787;29;20310;-89
2022/11/26 12:44:36;;;;;;;;;;;;;;;;;;4880128;29;19927;-88
2022/11/26 12:47:02;;;;;;;;;;;;;;;;;;4895634;29;19919;-88
2022/11/26 12:49:28;;;;;;;;;;;;;;;;;;4897467;29;19923;-88
2022/11/26 12:51:54;;;;;;;;;;;;;;;;;;4899393;29;19956;-89
2022/11/26 12:54:20;;;;;;;;;;;;;;;;;;4899806;29;20363;-90
2022/11/26 12:56:46;;;;;;;;;;;;;;;;;;4899245;29;19971;-85
2022/11/26 12:59:12;;;;;;;;;;;;;;;;;;4900302;29;20458;-88
2022/11/26 13:01:38;;;;;;;;;;;;;;;;;;4883569;29;20021;-87
2022/11/26 13:04:04;;;;;;;;;;;;;;;;;;4900190;29;20021;-87
2022/11/26 13:06:30;;;;;;;;;;;;;;;;;;4898892;29;19923;-87
2022/11/26 13:08:56;;;;;;;;;;;;;;;;;;4883556;29;19991;-88
2022/11/26 13:11:22;;;;;;;;;;;;;;;;;;4898949;29;19927;-87
2022/11/26 13:13:48;;;;;;;;;;;;;;;;;;4883352;29;19924;-87
2022/11/26 13:16:14;;;;;;;;;;;;;;;;;;4899115;29;19924;-87
2022/11/26 13:18:40;;;;;;;;;;;;;;;;;;4898819;29;20344;-88
2022/11/26 13:21:06;;;;;;;;;;;;;;;;;;4882835;29;19975;-87
2022/11/26 13:23:32;;;;;;;;;;;;;;;;;;4898551;29;20410;-87
2022/11/26 13:25:57;;;;;;;;;;;;;;;;;;4898408;29;20395;-88
2022/11/26 13:28:24;;;;;;;;;;;;;;;;;;4898523;29;19930;-88
2022/11/26 13:30:50;;;;;;;;;;;;;;;;;;4900911;29;19942;-88
2022/11/26 13:33:16;;;;;;;;;;;;;;;;;;4901944;29;19923;-89
2022/11/26 13:35:41;;;;;;;;;;;;;;;;;;4902059;29;19923;-88
2022/11/26 13:38:07;;;;;;;;;;;;;;;;;;4917351;29;19930;-88
2022/11/26 13:40:33;;;;;;;;;;;;;;;;;;4917071;29;19927;-89
2022/11/26 13:42:59;;;;;;;;;;;;;;;;;;4917124;29;19939;-89
2022/11/26 13:45:25;;;;;;;;;;;;;;;;;;4916765;29;20375;-88
2022/11/26 13:47:51;;;;;;;;;;;;;;;;;;4901419;29;20264;-89
2022/11/26 13:50:17;;;;;;;;;;;;;;;;;;4916954;29;20035;-88
2022/11/26 13:52:43;;;;;;;;;;;;;;;;;;4901276;29;19919;-90
2022/11/26 13:55:09;;;;;;;;;;;;;;;;;;4917349;29;19923;-87
2022/11/26 13:57:35;;;;;;;;;;;;;;;;;;4916867;29;19970;-88
2022/11/26 14:00:01;;;;;;;;;;;;;;;;;;4916517;29;20358;-89
2022/11/26 14:02:26;;;;;;;;;;;;;;;;;;4917035;29;19927;-88
2022/11/26 14:04:52;;;;;;;;;;;;;;;;;;4917155;29;19967;-92
2022/11/26 14:07:18;;;;;;;;;;;;;;;;;;4901101;29;20501;-89
2022/11/26 14:09:44;;;;;;;;;;;;;;;;;;4901210;29;19946;-89
2022/11/26 14:12:11;;;;;;;;;;;;;;;;;;4900981;29;20014;-92
2022/11/26 14:14:39;;;;;;;;;;;;;;;;;;4900883;29;19933;-92
2022/11/26 14:17:07;;;;;;;;;;;;;;;;;;4916743;29;19971;-93
2022/11/26 14:19:33;;;;;;;;;;;;;;;;;;4900772;29;19927;-93
2022/11/26 14:22:02;;;;;;;;;;;;;;;;;;4901161;29;20145;-92
2022/11/26 14:24:28;;;;;;;;;;;;;;;;;;4900472;29;19923;-92
2022/11/26 14:26:54;;;;;;;;;;;;;;;;;;4900937;29;19931;-92
2022/11/26 14:29:20;;;;;;;;;;;;;;;;;;4901094;29;19923;-91
2022/11/26 14:31:46;;;;;;;;;;;;;;;;;;4899829;29;19934;-91
2022/11/26 14:34:15;;;;;;;;;;;;;;;;;;4916290;29;20371;-93
2022/11/26 14:36:41;;;;;;;;;;;;;;;;;;4901045;29;20009;-92
2022/11/26 14:39:07;;;;;;;;;;;;;;;;;;4900330;29;20080;-90
2022/11/26 14:41:33;;;;;;;;;;;;;;;;;;4899924;29;19928;-91
2022/11/26 14:43:59;;;;;;;;;;;;;;;;;;4900044;29;19982;-90
2022/11/26 14:46:25;;;;;;;;;;;;;;;;;;4899677;29;20021;-91
2022/11/26 14:48:53;;;;;;;;;;;;;;;;;;4900899;29;20423;-92
2022/11/26 14:51:19;;;;;;;;;;;;;;;;;;4881349;29;19965;-90
2022/11/26 14:53:45;;;;;;;;;;;;;;;;;;4897284;29;19923;-90
2022/11/26 14:56:11;;;;;;;;;;;;;;;;;;4880911;29;19923;-92
2022/11/26 14:58:37;;;;;;;;;;;;;;;;;;4881220;29;19943;-91
2022/11/26 15:01:02;;;;;;;;;;;;;;;;;;4881127;29;20063;-91
2022/11/26 15:03:28;;;;;;;;;;;;;;;;;;4881051;29;19971;-90
2022/11/26 15:05:54;;;;;;;;;;;;;;;;;;4880965;29;19923;-89
2022/11/26 15:08:20;;;;;;;;;;;;;;;;;;4881168;29;19923;-91
2022/11/26 15:10:46;;;;;;;;;;;;;;;;;;4881480;29;20334;-90
2022/11/26 15:13:12;;;;;;;;;;;;;;;;;;4880689;29;20174;-92
2022/11/26 15:15:38;;;;;;;;;;;;;;;;;;4880983;29;19930;-90
2022/11/26 15:18:04;;;;;;;;;;;;;;;;;;4896550;29;19929;-92
2022/11/26 15:20:30;;;;;;;;;;;;;;;;;;4880721;29;19975;-91
2022/11/26 15:22:56;;;;;;;;;;;;;;;;;;4896761;29;19946;-92
2022/11/26 15:25:22;;;;;;;;;;;;;;;;;;4881468;29;19923;-92
2022/11/26 15:27:48;;;;;;;;;;;;;;;;;;4897311;29;19924;-91
2022/11/26 15:30:13;;;;;;;;;;;;;;;;;;4880856;29;19931;-91
2022/11/26 15:32:39;;;;;;;;;;;;;;;;;;4891658;29;19978;-91
2022/11/26 15:35:05;;;;;;;;;;;;;;;;;;4915997;29;19978;-92
2022/11/26 15:37:31;;;;;;;;;;;;;;;;;;4928822;29;19923;-92
2022/11/26 15:39:57;;;;;;;;;;;;;;;;;;4931120;29;19998;-93
2022/11/26 15:42:23;;;;;;;;;;;;;;;;;;4937447;29;19926;-91
2022/11/26 15:44:49;;;;;;;;;;;;;;;;;;4939683;29;19916;-93
2022/11/26 15:47:15;;;;;;;;;;;;;;;;;;4920978;29;20290;-93
2022/11/26 15:49:41;;;;;;;;;;;;;;;;;;4915382;29;19923;-92
2022/11/26 15:52:07;;;;;;;;;;;;;;;;;;4915314;29;19933;-91
2022/11/26 15:54:33;;;;;;;;;;;;;;;;;;4915375;29;20007;-92
2022/11/26 15:56:58;;;;;;;;;;;;;;;;;;4914955;29;20389;-92
2022/11/26 15:59:24;;;;;;;;;;;;;;;;;;4914700;29;19923;-91
2022/11/26 16:01:50;;;;;;;;;;;;;;;;;;4914813;29;19927;-90
2022/11/26 16:04:16;;;;;;;;;;;;;;;;;;4915500;29;19927;-91
2022/11/26 16:06:42;;;;;;;;;;;;;;;;;;4915520;29;20252;-91
2022/11/26 16:09:08;;;;;;;;;;;;;;;;;;4915226;29;19923;-91
2022/11/26 16:11:35;;;;;;;;;;;;;;;;;;4915328;29;20323;-89
2022/11/26 16:14:01;;;;;;;;;;;;;;;;;;4915193;29;19923;-91
2022/11/26 16:16:27;;;;;;;;;;;;;;;;;;4915028;29;19923;-92
2022/11/26 16:18:53;;;;;;;;;;;;;;;;;;4915399;29;19923;-90
2022/11/26 16:21:23;;;;;;;;;;;;;;;;;;4914745;29;19978;-90
2022/11/26 16:23:49;;;;;;;;;;;;;;;;;;4901515;29;19927;-90
2022/11/26 16:26:15;;;;;;;;;;;;;;;;;;4919605;29;20078;-90
2022/11/26 16:28:41;;;;;;;;;;;;;;;;;;4921889;29;20371;-92
2022/11/26 16:31:07;;;;;;;;;;;;;;;;;;4918828;29;19934;-93
2022/11/26 16:33:33;;;;;;;;;;;;;;;;;;4919318;29;20007;-92
2022/11/26 16:35:58;;;;;;;;;;;;;;;;;;4918784;29;20014;-94